sensor_id;sensor_type;location;lat;lon;timestamp;temperature;humidity
12446;DHT22;6287;50.984;7.022;2023-03-01T00:01:15;-0.70;99.90
12446;DHT22;6287;50.984;7.022;2023-03-01T00:03:45;-0.70;99.90
12446;DHT22;6287;50.984;7.022;2023-03-01T00:06:11;-0.70;99.90
12446;DHT22;6287;50.984;7.022;2023-03-01T00:08:39;-0.80;99.90
12446;DHT22;6287;50.984;7.022;2023-03-01T00:11:06;-0.80;99.90
12446;DHT22;6287;50.984;7.022;2023-03-01T00:13:36;-0.70;99.90
12446;DHT22;6287;50.984;7.022;2023-03-01T00:16:08;-0.80;99.90
12446;DHT22;6287;50.984;7.022;2023-03-01T00:18:36;-0.80;99.90
12446;DHT22;6287;50.984;7.022;2023-03-01T00:21:06;-0.80;99.90
12446;DHT22;6287;50.984;7.022;2023-03-01T00:23:34;-0.80;99.90
12446;DHT22;6287;50.984;7.022;2023-03-01T00:26:04;-0.80;99.90
12446;DHT22;6287;50.984;7.022;2023-03-01T00:28:33;-0.80;99.90
12446;DHT22;6287;50.984;7.022;2023-03-01T00:31:15;-0.90;99.90
12446;DHT22;6287;50.984;7.022;2023-03-01T00:33:42;-0.90;99.90
12446;DHT22;6287;50.984;7.022;2023-03-01T00:36:09;-0.90;99.90
12446;DHT22;6287;50.984;7.022;2023-03-01T00:38:39;-0.90;99.90
12446;DHT22;6287;50.984;7.022;2023-03-01T00:41:06;-0.90;99.90
12446;DHT22;6287;50.984;7.022;2023-03-01T00:43:37;-1.00;99.90
12446;DHT22;6287;50.984;7.022;2023-03-01T00:46:09;-0.90;99.90
12446;DHT22;6287;50.984;7.022;2023-03-01T00:48:35;-0.90;99.90
12446;DHT22;6287;50.984;7.022;2023-03-01T00:51:20;-0.90;99.90
12446;DHT22;6287;50.984;7.022;2023-03-01T00:53:50;-0.90;99.90
12446;DHT22;6287;50.984;7.022;2023-03-01T00:56:16;-0.90;99.90
12446;DHT22;6287;50.984;7.022;2023-03-01T00:58:43;-0.90;99.90
12446;DHT22;6287;50.984;7.022;2023-03-01T01:01:13;-0.90;99.90
12446;DHT22;6287;50.984;7.022;2023-03-01T01:03:56;-0.90;99.90
12446;DHT22;6287;50.984;7.022;2023-03-01T01:06:26;-0.90;99.90
12446;DHT22;6287;50.984;7.022;2023-03-01T01:08:53;-0.90;99.90
12446;DHT22;6287;50.984;7.022;2023-03-01T01:11:26;-0.90;99.90
12446;DHT22;6287;50.984;7.022;2023-03-01T01:13:56;-0.90;99.90
12446;DHT22;6287;50.984;7.022;2023-03-01T01:16:23;-0.90;99.90
12446;DHT22;6287;50.984;7.022;2023-03-01T01:18:51;-0.90;99.90
12446;DHT22;6287;50.984;7.022;2023-03-01T01:21:19;-1.00;99.90
12446;DHT22;6287;50.984;7.022;2023-03-01T01:23:46;-1.00;99.90
12446;DHT22;6287;50.984;7.022;2023-03-01T01:26:32;-1.00;99.90
12446;DHT22;6287;50.984;7.022;2023-03-01T01:28:58;-1.00;99.90
12446;DHT22;6287;50.984;7.022;2023-03-01T01:31:27;-1.00;99.90
12446;DHT22;6287;50.984;7.022;2023-03-01T01:33:54;-1.00;99.90
12446;DHT22;6287;50.984;7.022;2023-03-01T01:36:22;-1.00;99.90
12446;DHT22;6287;50.984;7.022;2023-03-01T01:38:48;-1.10;99.90
12446;DHT22;6287;50.984;7.022;2023-03-01T01:41:16;-1.10;99.90
12446;DHT22;6287;50.984;7.022;2023-03-01T01:43:45;-1.20;99.90
12446;DHT22;6287;50.984;7.022;2023-03-01T01:46:32;-1.20;99.90
12446;DHT22;6287;50.984;7.022;2023-03-01T01:49:06;-1.20;99.90
12446;DHT22;6287;50.984;7.022;2023-03-01T01:51:40;-1.20;99.90
12446;DHT22;6287;50.984;7.022;2023-03-01T01:54:16;-1.30;99.90
12446;DHT22;6287;50.984;7.022;2023-03-01T01:56:52;-1.30;99.90
12446;DHT22;6287;50.984;7.022;2023-03-01T01:59:19;-1.40;99.90
12446;DHT22;6287;50.984;7.022;2023-03-01T02:01:44;-1.40;99.90
12446;DHT22;6287;50.984;7.022;2023-03-01T02:04:15;-1.50;99.90
12446;DHT22;6287;50.984;7.022;2023-03-01T02:07:01;-1.50;99.90
12446;DHT22;6287;50.984;7.022;2023-03-01T02:09:29;-1.60;99.90
12446;DHT22;6287;50.984;7.022;2023-03-01T02:11:57;-1.60;99.90
12446;DHT22;6287;50.984;7.022;2023-03-01T02:14:26;-1.60;99.90
12446;DHT22;6287;50.984;7.022;2023-03-01T02:16:56;-1.70;99.90
12446;DHT22;6287;50.984;7.022;2023-03-01T02:19:48;-1.70;99.90
12446;DHT22;6287;50.984;7.022;2023-03-01T02:22:34;-1.80;99.90
12446;DHT22;6287;50.984;7.022;2023-03-01T02:28:20;-1.80;99.90
12446;DHT22;6287;50.984;7.022;2023-03-01T02:30:47;-1.90;99.90
12446;DHT22;6287;50.984;7.022;2023-03-01T02:33:36;-1.90;99.90
12446;DHT22;6287;50.984;7.022;2023-03-01T02:36:26;-1.90;99.90
12446;DHT22;6287;50.984;7.022;2023-03-01T02:38:58;-2.00;99.90
12446;DHT22;6287;50.984;7.022;2023-03-01T02:41:28;-2.00;99.90
12446;DHT22;6287;50.984;7.022;2023-03-01T02:43:58;-2.00;99.90
12446;DHT22;6287;50.984;7.022;2023-03-01T02:46:25;-2.00;99.90
12446;DHT22;6287;50.984;7.022;2023-03-01T02:48:53;-2.00;99.90
12446;DHT22;6287;50.984;7.022;2023-03-01T02:56:40;-2.10;99.90
12446;DHT22;6287;50.984;7.022;2023-03-01T02:59:07;-2.10;99.90
12446;DHT22;6287;50.984;7.022;2023-03-01T03:01:34;-2.20;99.90
12446;DHT22;6287;50.984;7.022;2023-03-01T03:04:09;-2.10;99.90
12446;DHT22;6287;50.984;7.022;2023-03-01T03:06:35;-2.20;99.90
12446;DHT22;6287;50.984;7.022;2023-03-01T03:09:04;-2.20;99.90
12446;DHT22;6287;50.984;7.022;2023-03-01T03:11:34;-2.20;99.90
12446;DHT22;6287;50.984;7.022;2023-03-01T03:14:04;-2.20;99.90
12446;DHT22;6287;50.984;7.022;2023-03-01T03:16:29;-2.20;99.90
12446;DHT22;6287;50.984;7.022;2023-03-01T03:18:55;-2.20;99.90
12446;DHT22;6287;50.984;7.022;2023-03-01T03:21:33;-2.30;99.90
12446;DHT22;6287;50.984;7.022;2023-03-01T03:24:01;-2.30;99.90
12446;DHT22;6287;50.984;7.022;2023-03-01T03:26:30;-2.30;99.90
12446;DHT22;6287;50.984;7.022;2023-03-01T03:28:56;-2.30;99.90
12446;DHT22;6287;50.984;7.022;2023-03-01T03:31:22;-2.30;99.90
12446;DHT22;6287;50.984;7.022;2023-03-01T03:33:48;-2.40;99.90
12446;DHT22;6287;50.984;7.022;2023-03-01T03:36:20;-2.40;99.90
12446;DHT22;6287;50.984;7.022;2023-03-01T03:38:46;-2.40;99.90
12446;DHT22;6287;50.984;7.022;2023-03-01T03:41:12;-2.50;99.90
12446;DHT22;6287;50.984;7.022;2023-03-01T03:43:42;-2.50;99.90
12446;DHT22;6287;50.984;7.022;2023-03-01T03:46:09;-2.50;99.90
12446;DHT22;6287;50.984;7.022;2023-03-01T03:48:44;-2.50;99.90
12446;DHT22;6287;50.984;7.022;2023-03-01T03:51:15;-2.60;99.90
12446;DHT22;6287;50.984;7.022;2023-03-01T03:53:44;-2.60;99.90
12446;DHT22;6287;50.984;7.022;2023-03-01T03:56:10;-2.60;99.90
12446;DHT22;6287;50.984;7.022;2023-03-01T03:58:38;-2.70;99.90
12446;DHT22;6287;50.984;7.022;2023-03-01T04:01:06;-2.70;99.90
12446;DHT22;6287;50.984;7.022;2023-03-01T04:03:32;-2.70;99.90
12446;DHT22;6287;50.984;7.022;2023-03-01T04:06:01;-2.70;99.90
12446;DHT22;6287;50.984;7.022;2023-03-01T04:08:27;-2.70;99.90
12446;DHT22;6287;50.984;7.022;2023-03-01T04:10:58;-2.70;99.90
12446;DHT22;6287;50.984;7.022;2023-03-01T04:13:44;-2.70;99.90
12446;DHT22;6287;50.984;7.022;2023-03-01T04:16:10;-2.70;99.90
12446;DHT22;6287;50.984;7.022;2023-03-01T04:18:35;-2.70;99.90
12446;DHT22;6287;50.984;7.022;2023-03-01T04:21:01;-2.70;99.90
12446;DHT22;6287;50.984;7.022;2023-03-01T04:23:27;-2.80;99.90
12446;DHT22;6287;50.984;7.022;2023-03-01T04:25:55;-2.80;99.90
12446;DHT22;6287;50.984;7.022;2023-03-01T04:30:58;-2.80;99.90
12446;DHT22;6287;50.984;7.022;2023-03-01T04:33:24;-2.80;99.90
12446;DHT22;6287;50.984;7.022;2023-03-01T04:35:52;-2.80;99.90
12446;DHT22;6287;50.984;7.022;2023-03-01T04:38:19;-2.80;99.90
12446;DHT22;6287;50.984;7.022;2023-03-01T04:40:45;-2.80;99.90
12446;DHT22;6287;50.984;7.022;2023-03-01T04:43:15;-2.90;99.90
12446;DHT22;6287;50.984;7.022;2023-03-01T04:45:42;-2.90;99.90
12446;DHT22;6287;50.984;7.022;2023-03-01T04:48:12;-2.90;99.90
12446;DHT22;6287;50.984;7.022;2023-03-01T04:50:40;-2.90;99.90
12446;DHT22;6287;50.984;7.022;2023-03-01T04:53:05;-2.90;99.90
12446;DHT22;6287;50.984;7.022;2023-03-01T04:55:33;-2.90;99.90
12446;DHT22;6287;50.984;7.022;2023-03-01T04:57:59;-2.90;99.90
12446;DHT22;6287;50.984;7.022;2023-03-01T05:00:24;-2.90;99.90
12446;DHT22;6287;50.984;7.022;2023-03-01T05:02:57;-2.90;99.90
12446;DHT22;6287;50.984;7.022;2023-03-01T05:05:36;-3.00;99.90
12446;DHT22;6287;50.984;7.022;2023-03-01T05:08:06;-3.00;99.90
12446;DHT22;6287;50.984;7.022;2023-03-01T05:10:34;-3.00;99.90
12446;DHT22;6287;50.984;7.022;2023-03-01T05:13:03;-3.00;99.90
12446;DHT22;6287;50.984;7.022;2023-03-01T05:15:31;-3.00;99.90
12446;DHT22;6287;50.984;7.022;2023-03-01T05:17:59;-3.00;99.90
12446;DHT22;6287;50.984;7.022;2023-03-01T05:20:29;-3.00;99.90
12446;DHT22;6287;50.984;7.022;2023-03-01T05:22:58;-3.00;99.90
12446;DHT22;6287;50.984;7.022;2023-03-01T05:25:29;-3.00;99.90
12446;DHT22;6287;50.984;7.022;2023-03-01T05:27:59;-3.00;99.90
12446;DHT22;6287;50.984;7.022;2023-03-01T05:30:32;-3.10;99.90
12446;DHT22;6287;50.984;7.022;2023-03-01T05:32:58;-3.10;99.90
12446;DHT22;6287;50.984;7.022;2023-03-01T05:35:24;-3.10;99.90
12446;DHT22;6287;50.984;7.022;2023-03-01T05:37:52;-3.10;99.90
12446;DHT22;6287;50.984;7.022;2023-03-01T05:40:23;-3.10;99.90
12446;DHT22;6287;50.984;7.022;2023-03-01T05:42:53;-3.10;99.90
12446;DHT22;6287;50.984;7.022;2023-03-01T05:45:20;-3.20;99.90
12446;DHT22;6287;50.984;7.022;2023-03-01T05:47:47;-3.20;99.90
12446;DHT22;6287;50.984;7.022;2023-03-01T05:50:20;-3.20;99.90
12446;DHT22;6287;50.984;7.022;2023-03-01T05:52:56;-3.20;99.90
12446;DHT22;6287;50.984;7.022;2023-03-01T05:55:23;-3.20;99.90
12446;DHT22;6287;50.984;7.022;2023-03-01T05:57:53;-3.20;99.90
12446;DHT22;6287;50.984;7.022;2023-03-01T06:00:20;-3.20;99.90
12446;DHT22;6287;50.984;7.022;2023-03-01T06:02:47;-3.20;99.90
12446;DHT22;6287;50.984;7.022;2023-03-01T06:05:14;-3.20;99.90
12446;DHT22;6287;50.984;7.022;2023-03-01T06:07:42;-3.20;99.90
12446;DHT22;6287;50.984;7.022;2023-03-01T06:10:11;-3.20;99.90
12446;DHT22;6287;50.984;7.022;2023-03-01T06:12:40;-3.30;99.90
12446;DHT22;6287;50.984;7.022;2023-03-01T06:15:07;-3.30;99.90
12446;DHT22;6287;50.984;7.022;2023-03-01T06:17:38;-3.30;99.90
12446;DHT22;6287;50.984;7.022;2023-03-01T06:20:09;-3.30;99.90
12446;DHT22;6287;50.984;7.022;2023-03-01T06:22:42;-3.30;99.90
12446;DHT22;6287;50.984;7.022;2023-03-01T06:25:09;-3.30;99.90
12446;DHT22;6287;50.984;7.022;2023-03-01T06:27:37;-3.40;99.90
12446;DHT22;6287;50.984;7.022;2023-03-01T06:30:06;-3.30;99.90
12446;DHT22;6287;50.984;7.022;2023-03-01T06:32:35;-3.30;99.90
12446;DHT22;6287;50.984;7.022;2023-03-01T06:35:00;-3.30;99.90
12446;DHT22;6287;50.984;7.022;2023-03-01T06:37:31;-3.30;99.90
12446;DHT22;6287;50.984;7.022;2023-03-01T06:39:59;-3.20;99.90
12446;DHT22;6287;50.984;7.022;2023-03-01T06:42:24;-3.20;99.90
12446;DHT22;6287;50.984;7.022;2023-03-01T06:44:50;-3.20;99.90
12446;DHT22;6287;50.984;7.022;2023-03-01T06:47:18;-3.20;99.90
12446;DHT22;6287;50.984;7.022;2023-03-01T06:49:46;-3.20;99.90
12446;DHT22;6287;50.984;7.022;2023-03-01T06:52:14;-3.20;99.90
12446;DHT22;6287;50.984;7.022;2023-03-01T06:54:43;-3.10;99.90
12446;DHT22;6287;50.984;7.022;2023-03-01T06:57:11;-3.10;99.90
12446;DHT22;6287;50.984;7.022;2023-03-01T06:59:36;-3.10;99.90
12446;DHT22;6287;50.984;7.022;2023-03-01T07:02:04;-3.10;99.90
12446;DHT22;6287;50.984;7.022;2023-03-01T07:04:30;-3.00;99.90
12446;DHT22;6287;50.984;7.022;2023-03-01T07:06:55;-2.90;99.90
12446;DHT22;6287;50.984;7.022;2023-03-01T07:09:22;-2.90;99.90
12446;DHT22;6287;50.984;7.022;2023-03-01T07:11:50;-2.80;99.90
12446;DHT22;6287;50.984;7.022;2023-03-01T07:14:16;-2.70;99.90
12446;DHT22;6287;50.984;7.022;2023-03-01T07:16:44;-2.50;99.90
12446;DHT22;6287;50.984;7.022;2023-03-01T07:19:12;-2.40;99.90
12446;DHT22;6287;50.984;7.022;2023-03-01T07:21:37;-2.30;99.90
12446;DHT22;6287;50.984;7.022;2023-03-01T07:24:08;-2.20;99.90
12446;DHT22;6287;50.984;7.022;2023-03-01T07:26:34;-2.00;99.90
12446;DHT22;6287;50.984;7.022;2023-03-01T07:29:05;-1.80;99.90
12446;DHT22;6287;50.984;7.022;2023-03-01T07:31:31;-1.60;99.90
12446;DHT22;6287;50.984;7.022;2023-03-01T07:33:57;-1.50;99.90
12446;DHT22;6287;50.984;7.022;2023-03-01T07:36:23;-1.30;99.90
12446;DHT22;6287;50.984;7.022;2023-03-01T07:38:50;-1.20;99.90
12446;DHT22;6287;50.984;7.022;2023-03-01T07:41:15;-1.00;99.90
12446;DHT22;6287;50.984;7.022;2023-03-01T07:43:43;-0.80;99.90
12446;DHT22;6287;50.984;7.022;2023-03-01T07:46:09;-0.60;99.90
12446;DHT22;6287;50.984;7.022;2023-03-01T07:48:34;-0.50;99.90
12446;DHT22;6287;50.984;7.022;2023-03-01T07:51:01;-0.30;99.90
12446;DHT22;6287;50.984;7.022;2023-03-01T07:53:30;-0.10;99.90
12446;DHT22;6287;50.984;7.022;2023-03-01T07:56:06;0.10;99.90
12446;DHT22;6287;50.984;7.022;2023-03-01T07:58:37;0.30;99.90
12446;DHT22;6287;50.984;7.022;2023-03-01T08:01:05;0.50;99.90
12446;DHT22;6287;50.984;7.022;2023-03-01T08:03:31;0.70;99.90
12446;DHT22;6287;50.984;7.022;2023-03-01T08:05:59;0.80;99.90
12446;DHT22;6287;50.984;7.022;2023-03-01T08:08:28;1.00;99.90
12446;DHT22;6287;50.984;7.022;2023-03-01T08:10:57;1.20;99.90
12446;DHT22;6287;50.984;7.022;2023-03-01T08:13:22;1.30;99.90
12446;DHT22;6287;50.984;7.022;2023-03-01T08:15:52;1.50;99.90
12446;DHT22;6287;50.984;7.022;2023-03-01T08:18:18;1.70;99.90
12446;DHT22;6287;50.984;7.022;2023-03-01T08:20:47;1.80;99.90
12446;DHT22;6287;50.984;7.022;2023-03-01T08:23:15;1.90;99.90
12446;DHT22;6287;50.984;7.022;2023-03-01T08:25:41;2.00;99.90
12446;DHT22;6287;50.984;7.022;2023-03-01T08:28:06;2.20;99.90
12446;DHT22;6287;50.984;7.022;2023-03-01T08:30:32;2.40;99.90
12446;DHT22;6287;50.984;7.022;2023-03-01T08:33:00;2.50;99.90
12446;DHT22;6287;50.984;7.022;2023-03-01T08:35:25;2.60;99.90
12446;DHT22;6287;50.984;7.022;2023-03-01T08:37:51;2.80;99.90
12446;DHT22;6287;50.984;7.022;2023-03-01T08:40:20;3.00;99.90
12446;DHT22;6287;50.984;7.022;2023-03-01T08:42:45;3.20;99.90
12446;DHT22;6287;50.984;7.022;2023-03-01T08:45:13;3.40;99.90
12446;DHT22;6287;50.984;7.022;2023-03-01T08:47:43;3.50;99.90
12446;DHT22;6287;50.984;7.022;2023-03-01T08:50:10;3.70;99.90
12446;DHT22;6287;50.984;7.022;2023-03-01T08:52:36;3.80;99.90
12446;DHT22;6287;50.984;7.022;2023-03-01T08:55:01;3.90;99.90
12446;DHT22;6287;50.984;7.022;2023-03-01T08:57:27;4.00;99.90
12446;DHT22;6287;50.984;7.022;2023-03-01T08:59:55;4.20;99.90
12446;DHT22;6287;50.984;7.022;2023-03-01T09:02:22;4.30;99.90
12446;DHT22;6287;50.984;7.022;2023-03-01T09:04:47;4.50;99.90
12446;DHT22;6287;50.984;7.022;2023-03-01T09:07:15;4.60;99.00
12446;DHT22;6287;50.984;7.022;2023-03-01T09:09:41;4.60;98.70
12446;DHT22;6287;50.984;7.022;2023-03-01T09:12:09;4.70;98.70
12446;DHT22;6287;50.984;7.022;2023-03-01T09:14:37;4.80;99.30
12446;DHT22;6287;50.984;7.022;2023-03-01T09:17:06;4.90;98.10
12446;DHT22;6287;50.984;7.022;2023-03-01T09:19:34;5.10;98.30
12446;DHT22;6287;50.984;7.022;2023-03-01T09:22:03;5.20;97.80
12446;DHT22;6287;50.984;7.022;2023-03-01T09:24:29;5.30;98.00
12446;DHT22;6287;50.984;7.022;2023-03-01T09:26:55;5.40;97.20
12446;DHT22;6287;50.984;7.022;2023-03-01T09:29:21;5.50;96.30
12446;DHT22;6287;50.984;7.022;2023-03-01T09:31:49;5.60;96.40
12446;DHT22;6287;50.984;7.022;2023-03-01T09:34:15;5.70;96.60
12446;DHT22;6287;50.984;7.022;2023-03-01T09:36:44;5.70;96.10
12446;DHT22;6287;50.984;7.022;2023-03-01T09:39:10;5.80;96.30
12446;DHT22;6287;50.984;7.022;2023-03-01T09:44:13;6.00;95.70
12446;DHT22;6287;50.984;7.022;2023-03-01T09:46:46;6.10;95.10
12446;DHT22;6287;50.984;7.022;2023-03-01T09:49:25;6.20;95.20
12446;DHT22;6287;50.984;7.022;2023-03-01T09:54:24;6.30;94.70
12446;DHT22;6287;50.984;7.022;2023-03-01T10:03:01;6.60;94.20
12446;DHT22;6287;50.984;7.022;2023-03-01T10:05:34;6.60;93.80
12446;DHT22;6287;50.984;7.022;2023-03-01T10:08:24;6.70;93.80
12446;DHT22;6287;50.984;7.022;2023-03-01T10:10:54;6.90;93.60
12446;DHT22;6287;50.984;7.022;2023-03-01T10:15:55;6.90;93.50
12446;DHT22;6287;50.984;7.022;2023-03-01T10:18:29;7.10;93.70
12446;DHT22;6287;50.984;7.022;2023-03-01T10:21:05;7.30;93.30
12446;DHT22;6287;50.984;7.022;2023-03-01T10:23:34;7.40;92.20
12446;DHT22;6287;50.984;7.022;2023-03-01T10:29:10;7.40;92.00
12446;DHT22;6287;50.984;7.022;2023-03-01T10:36:42;7.50;91.40
12446;DHT22;6287;50.984;7.022;2023-03-01T10:39:16;7.60;91.50
12446;DHT22;6287;50.984;7.022;2023-03-01T10:42:00;7.70;91.90
12446;DHT22;6287;50.984;7.022;2023-03-01T10:44:46;7.90;92.10
12446;DHT22;6287;50.984;7.022;2023-03-01T10:47:24;8.10;91.50
12446;DHT22;6287;50.984;7.022;2023-03-01T10:52:27;8.50;91.10
12446;DHT22;6287;50.984;7.022;2023-03-01T10:58:06;8.90;90.90
12446;DHT22;6287;50.984;7.022;2023-03-01T11:00:55;9.00;89.60
12446;DHT22;6287;50.984;7.022;2023-03-01T11:03:37;9.20;89.30
12446;DHT22;6287;50.984;7.022;2023-03-01T11:06:20;9.20;88.10
12446;DHT22;6287;50.984;7.022;2023-03-01T11:08:48;9.30;89.80
12446;DHT22;6287;50.984;7.022;2023-03-01T11:11:31;9.50;88.20
12446;DHT22;6287;50.984;7.022;2023-03-01T11:14:13;9.80;89.30
12446;DHT22;6287;50.984;7.022;2023-03-01T11:16:44;10.00;87.20
12446;DHT22;6287;50.984;7.022;2023-03-01T11:22:14;10.30;86.60
12446;DHT22;6287;50.984;7.022;2023-03-01T11:24:45;10.60;84.30
12446;DHT22;6287;50.984;7.022;2023-03-01T11:29:54;10.70;81.90
12446;DHT22;6287;50.984;7.022;2023-03-01T11:32:30;10.70;81.80
12446;DHT22;6287;50.984;7.022;2023-03-01T11:35:04;10.70;82.60
12446;DHT22;6287;50.984;7.022;2023-03-01T11:40:37;11.20;82.00
12446;DHT22;6287;50.984;7.022;2023-03-01T11:43:17;11.30;80.70
12446;DHT22;6287;50.984;7.022;2023-03-01T11:50:54;11.50;80.40
12446;DHT22;6287;50.984;7.022;2023-03-01T11:56:31;11.70;78.40
12446;DHT22;6287;50.984;7.022;2023-03-01T12:06:55;12.30;76.80
12446;DHT22;6287;50.984;7.022;2023-03-01T12:09:36;12.30;73.80
12446;DHT22;6287;50.984;7.022;2023-03-01T12:14:45;12.30;73.50
12446;DHT22;6287;50.984;7.022;2023-03-01T12:25:20;12.80;73.90
12446;DHT22;6287;50.984;7.022;2023-03-01T12:27:59;12.90;73.30
12446;DHT22;6287;50.984;7.022;2023-03-01T12:30:53;13.10;73.10
12446;DHT22;6287;50.984;7.022;2023-03-01T12:48:12;13.80;68.40
12446;DHT22;6287;50.984;7.022;2023-03-01T12:50:52;13.80;66.90
12446;DHT22;6287;50.984;7.022;2023-03-01T12:53:27;13.90;66.20
12446;DHT22;6287;50.984;7.022;2023-03-01T12:55:56;14.00;65.90
12446;DHT22;6287;50.984;7.022;2023-03-01T12:58:33;14.00;63.50
12446;DHT22;6287;50.984;7.022;2023-03-01T13:06:38;14.40;63.70
12446;DHT22;6287;50.984;7.022;2023-03-01T13:11:50;14.30;63.30
12446;DHT22;6287;50.984;7.022;2023-03-01T13:16:52;14.40;60.80
12446;DHT22;6287;50.984;7.022;2023-03-01T13:19:25;14.50;62.00
12446;DHT22;6287;50.984;7.022;2023-03-01T13:21:55;14.50;62.30
12446;DHT22;6287;50.984;7.022;2023-03-01T13:24:34;14.50;60.60
12446;DHT22;6287;50.984;7.022;2023-03-01T13:29:52;14.70;60.50
12446;DHT22;6287;50.984;7.022;2023-03-01T13:37:47;15.20;58.40
12446;DHT22;6287;50.984;7.022;2023-03-01T13:42:43;15.80;58.60
12446;DHT22;6287;50.984;7.022;2023-03-01T13:47:49;15.80;58.20
12446;DHT22;6287;50.984;7.022;2023-03-01T13:50:23;16.00;54.90
12446;DHT22;6287;50.984;7.022;2023-03-01T13:52:56;16.40;55.30
12446;DHT22;6287;50.984;7.022;2023-03-01T13:55:40;16.60;55.60
12446;DHT22;6287;50.984;7.022;2023-03-01T13:58:30;16.50;54.00
12446;DHT22;6287;50.984;7.022;2023-03-01T14:01:00;16.30;54.10
12446;DHT22;6287;50.984;7.022;2023-03-01T14:03:27;15.90;52.10
12446;DHT22;6287;50.984;7.022;2023-03-01T14:06:09;15.50;51.90
12446;DHT22;6287;50.984;7.022;2023-03-01T14:08:41;15.20;53.20
12446;DHT22;6287;50.984;7.022;2023-03-01T14:19:30;13.70;56.20
12446;DHT22;6287;50.984;7.022;2023-03-01T14:22:12;13.40;57.60
12446;DHT22;6287;50.984;7.022;2023-03-01T14:24:49;13.30;57.80
12446;DHT22;6287;50.984;7.022;2023-03-01T14:27:16;13.20;58.10
12446;DHT22;6287;50.984;7.022;2023-03-01T14:29:42;13.30;59.50
12446;DHT22;6287;50.984;7.022;2023-03-01T14:32:18;13.40;59.20
12446;DHT22;6287;50.984;7.022;2023-03-01T14:34:52;13.60;59.40
12446;DHT22;6287;50.984;7.022;2023-03-01T14:37:31;13.50;59.90
12446;DHT22;6287;50.984;7.022;2023-03-01T14:39:57;13.60;59.90
12446;DHT22;6287;50.984;7.022;2023-03-01T14:42:27;13.70;59.60
12446;DHT22;6287;50.984;7.022;2023-03-01T14:44:55;13.70;60.20
12446;DHT22;6287;50.984;7.022;2023-03-01T14:47:35;13.80;60.50
12446;DHT22;6287;50.984;7.022;2023-03-01T14:50:24;14.20;60.30
12446;DHT22;6287;50.984;7.022;2023-03-01T14:53:02;14.40;59.00
12446;DHT22;6287;50.984;7.022;2023-03-01T14:57:58;14.40;58.00
12446;DHT22;6287;50.984;7.022;2023-03-01T15:00:32;14.00;58.20
12446;DHT22;6287;50.984;7.022;2023-03-01T15:03:06;13.60;59.50
12446;DHT22;6287;50.984;7.022;2023-03-01T15:05:35;13.20;59.60
12446;DHT22;6287;50.984;7.022;2023-03-01T15:08:12;13.00;59.50
12446;DHT22;6287;50.984;7.022;2023-03-01T15:10:57;12.60;59.70
12446;DHT22;6287;50.984;7.022;2023-03-01T15:13:29;12.30;60.90
12446;DHT22;6287;50.984;7.022;2023-03-01T15:16:13;12.00;61.30
12446;DHT22;6287;50.984;7.022;2023-03-01T15:18:51;11.60;63.50
12446;DHT22;6287;50.984;7.022;2023-03-01T15:23:55;10.80;64.90
12446;DHT22;6287;50.984;7.022;2023-03-01T15:26:37;10.70;65.90
12446;DHT22;6287;50.984;7.022;2023-03-01T15:29:04;10.60;65.40
12446;DHT22;6287;50.984;7.022;2023-03-01T15:31:42;10.60;66.30
12446;DHT22;6287;50.984;7.022;2023-03-01T15:34:22;10.80;66.20
12446;DHT22;6287;50.984;7.022;2023-03-01T15:36:49;11.10;65.30
12446;DHT22;6287;50.984;7.022;2023-03-01T15:39:37;11.70;63.10
12446;DHT22;6287;50.984;7.022;2023-03-01T15:45:08;12.00;63.40
12446;DHT22;6287;50.984;7.022;2023-03-01T15:47:35;11.40;63.50
12446;DHT22;6287;50.984;7.022;2023-03-01T15:50:03;10.90;63.90
12446;DHT22;6287;50.984;7.022;2023-03-01T15:52:49;10.40;65.90
12446;DHT22;6287;50.984;7.022;2023-03-01T15:55:21;10.10;66.70
12446;DHT22;6287;50.984;7.022;2023-03-01T15:57:50;9.90;68.50
12446;DHT22;6287;50.984;7.022;2023-03-01T16:00:23;9.80;69.00
12446;DHT22;6287;50.984;7.022;2023-03-01T16:02:51;9.70;69.50
12446;DHT22;6287;50.984;7.022;2023-03-01T16:05:26;9.60;69.30
12446;DHT22;6287;50.984;7.022;2023-03-01T16:07:52;9.40;70.10
12446;DHT22;6287;50.984;7.022;2023-03-01T16:10:18;9.40;70.50
12446;DHT22;6287;50.984;7.022;2023-03-01T16:12:44;9.20;70.50
12446;DHT22;6287;50.984;7.022;2023-03-01T16:17:43;8.80;71.70
12446;DHT22;6287;50.984;7.022;2023-03-01T16:20:10;8.60;71.70
12446;DHT22;6287;50.984;7.022;2023-03-01T16:22:35;8.40;72.70
12446;DHT22;6287;50.984;7.022;2023-03-01T16:27:27;8.10;73.30
12446;DHT22;6287;50.984;7.022;2023-03-01T16:29:54;8.00;74.40
12446;DHT22;6287;50.984;7.022;2023-03-01T16:32:22;8.00;75.30
12446;DHT22;6287;50.984;7.022;2023-03-01T16:34:50;7.80;74.60
12446;DHT22;6287;50.984;7.022;2023-03-01T16:37:16;7.70;75.30
12446;DHT22;6287;50.984;7.022;2023-03-01T16:39:46;7.60;75.60
12446;DHT22;6287;50.984;7.022;2023-03-01T16:42:17;7.60;75.10
12446;DHT22;6287;50.984;7.022;2023-03-01T16:44:45;7.50;75.00
12446;DHT22;6287;50.984;7.022;2023-03-01T16:47:15;7.40;76.00
12446;DHT22;6287;50.984;7.022;2023-03-01T16:49:47;7.40;76.90
12446;DHT22;6287;50.984;7.022;2023-03-01T16:52:16;7.30;77.10
12446;DHT22;6287;50.984;7.022;2023-03-01T16:54:44;7.30;77.90
12446;DHT22;6287;50.984;7.022;2023-03-01T16:57:09;7.20;78.00
12446;DHT22;6287;50.984;7.022;2023-03-01T16:59:35;7.10;76.80
12446;DHT22;6287;50.984;7.022;2023-03-01T17:02:03;7.00;77.40
12446;DHT22;6287;50.984;7.022;2023-03-01T17:04:29;7.00;78.10
12446;DHT22;6287;50.984;7.022;2023-03-01T17:06:56;6.90;78.60
12446;DHT22;6287;50.984;7.022;2023-03-01T17:09:27;6.80;78.70
12446;DHT22;6287;50.984;7.022;2023-03-01T17:11:55;6.70;79.60
12446;DHT22;6287;50.984;7.022;2023-03-01T17:16:46;6.60;79.20
12446;DHT22;6287;50.984;7.022;2023-03-01T17:19:14;6.50;80.10
12446;DHT22;6287;50.984;7.022;2023-03-01T17:21:43;6.30;80.60
12446;DHT22;6287;50.984;7.022;2023-03-01T17:24:10;6.30;81.10
12446;DHT22;6287;50.984;7.022;2023-03-01T17:26:37;6.30;81.30
12446;DHT22;6287;50.984;7.022;2023-03-01T17:29:03;6.10;81.20
12446;DHT22;6287;50.984;7.022;2023-03-01T17:31:32;6.10;81.70
12446;DHT22;6287;50.984;7.022;2023-03-01T17:34:00;6.00;82.10
12446;DHT22;6287;50.984;7.022;2023-03-01T17:36:26;6.00;82.40
12446;DHT22;6287;50.984;7.022;2023-03-01T17:39:00;5.90;82.40
12446;DHT22;6287;50.984;7.022;2023-03-01T17:41:26;5.90;83.50
12446;DHT22;6287;50.984;7.022;2023-03-01T17:43:52;5.80;84.10
12446;DHT22;6287;50.984;7.022;2023-03-01T17:46:18;5.70;84.00
12446;DHT22;6287;50.984;7.022;2023-03-01T17:48:46;5.80;84.30
12446;DHT22;6287;50.984;7.022;2023-03-01T17:51:16;5.70;84.30
12446;DHT22;6287;50.984;7.022;2023-03-01T17:56:11;5.60;84.80
12446;DHT22;6287;50.984;7.022;2023-03-01T17:58:37;5.50;85.80
12446;DHT22;6287;50.984;7.022;2023-03-01T18:01:18;5.50;86.10
12446;DHT22;6287;50.984;7.022;2023-03-01T18:03:44;5.40;86.50
12446;DHT22;6287;50.984;7.022;2023-03-01T18:06:30;5.40;86.60
12446;DHT22;6287;50.984;7.022;2023-03-01T18:08:57;5.30;87.40
12446;DHT22;6287;50.984;7.022;2023-03-01T18:11:24;5.20;87.30
12446;DHT22;6287;50.984;7.022;2023-03-01T18:13:51;5.20;86.70
12446;DHT22;6287;50.984;7.022;2023-03-01T18:16:21;5.20;87.60
12446;DHT22;6287;50.984;7.022;2023-03-01T18:18:51;5.10;88.40
12446;DHT22;6287;50.984;7.022;2023-03-01T18:21:17;5.00;88.70
12446;DHT22;6287;50.984;7.022;2023-03-01T18:23:43;5.00;89.40
12446;DHT22;6287;50.984;7.022;2023-03-01T18:26:10;4.90;89.30
12446;DHT22;6287;50.984;7.022;2023-03-01T18:28:37;4.80;89.10
12446;DHT22;6287;50.984;7.022;2023-03-01T18:31:08;4.80;89.60